• Join FlightAware (Why Join?)
  • Login
  • US Flag 
08:10AM EDT


 

Airport Tracker/Info


-or-


 

Live Flight TrackerFlight Track Log ✈ ASH3780 ✈ 02-May-2013 ✈ KIAD - KDTW

Flight Track Log - Related Links

Times and Time Zones

All times are in EDT time to prevent confusion due to time zone crossing. See the ASH3780 flight status page for this flight to view local times or setup timezone preferences in your user account.

Time Position Orientation Groundspeed Altitude Reporting Facility
EDT Latitude Longitude Course Direction KTS MPH feet Rate Location/Type
08:30AM 38.9833 -77.4500 322° Northwest 193 222 2,600  Level Potomac TRACON
08:31AM 39.0333 -77.5000 322° Northwest 255 293 5,100 2,640 Climbing Potomac TRACON
08:34AM 39.1903 -77.6189 330° Northwest 295 339 11,700 2,520 Climbing Washington Center
08:35AM 39.2789 -77.6803 332° Northwest 323 372 13,700 1,920 Climbing Washington Center
08:36AM 39.3714 -77.7447 332° Northwest 356 410 15,600 1,980 Climbing Washington Center
08:37AM 39.4722 -77.8150 332° Northwest 385 443 17,700 1,680 Climbing Washington Center
08:38AM 39.5561 -77.9089 319° Northwest 397 457 19,000 1,080 Climbing Washington Center
08:39AM 39.5967 -78.0583 289° West 398 458 20,000 540 Climbing Washington Center
08:39AM 39.6442 -78.2025 293° West 432 497 20,000 420 Level Cleveland Center
08:40AM 39.6867 -78.3547 290° West 454 522 20,800 1,260 Climbing Cleveland Center
08:41AM 39.7333 -78.5072 292° West 454 522 22,600 1,440 Climbing Cleveland Center
08:42AM 39.7778 -78.6625 290° West 459 528 23,700 1,020 Climbing Cleveland Center
08:43AM 39.8158 -78.8128 288° West 467 537 24,700 1,200 Climbing Cleveland Center
08:44AM 39.8639 -78.9739 291° West 472 543 26,100 1,380 Climbing Cleveland Center
08:45AM 39.9142 -79.1350 292° West 477 549 27,500 900 Climbing Cleveland Center
08:46AM 39.9578 -79.2967 289° West 482 555 28,000 240 Climbing Cleveland Center
08:47AM 40.0239 -79.4497 299° West 487 560 28,000  Level Cleveland Center
08:48AM 40.0983 -79.5953 304° West 482 555 28,100  Climbing Cleveland Center
08:49AM 40.1725 -79.7408 304° West 482 555 28,000 -60 Descending Cleveland Center
08:50AM 40.2464 -79.8842 304° West 482 555 28,000  Level Cleveland Center
08:51AM 40.3181 -80.0275 303° West 476 548 28,000  Level Cleveland Center
08:52AM 40.3894 -80.1769 302° West 476 548 28,000  Level Cleveland Center
08:53AM 40.4631 -80.3211 304° West 476 548 28,000  Level Cleveland Center
08:54AM 40.5444 -80.4792 304° West 476 548 28,000  Level Cleveland Center
08:55AM 40.6153 -80.6242 303° West 481 554 28,000  Level Cleveland Center
08:56AM 40.6883 -80.7692 304° West 475 547 28,000  Level Cleveland Center
08:57AM 40.7608 -80.9147 303° West 475 547 28,000  Level Cleveland Center
08:58AM 40.8311 -81.0633 302° West 475 547 28,000  Level Cleveland Center
08:59AM 40.9014 -81.2094 303° West 475 547 28,000  Level Cleveland Center
09:00AM 40.9797 -81.3531 306° West 475 547 28,000  Level Cleveland Center
09:01AM 41.0536 -81.4944 305° West 480 552 28,000  Level Cleveland Center
09:02AM 41.1297 -81.6361 306° West 480 552 28,000  Level Cleveland Center
09:03AM 41.2094 -81.7783 307° West 480 552 28,000  Level Cleveland Center
09:04AM 41.2831 -81.9206 305° West 480 552 28,000 -1,260 Level Cleveland Center
09:05AM 41.3583 -82.0686 304° West 475 547 25,500 -2,700 Descending Cleveland Center
09:06AM 41.4272 -82.2031 304° West 464 534 22,700 -2,820 Descending Cleveland Center
09:07AM 41.4942 -82.3325 305° West 444 511 19,900 -2,700 Descending Cleveland Center
09:08AM 41.5589 -82.4561 305° West 427 491 17,400 -2,700 Descending Cleveland Center
09:09AM 41.5894 -82.5128 306° West 400 460 16,100 -2,820 Descending Cleveland Center
09:09AM 41.6214 -82.5803 302° West 415 478 14,600 -2,520 Descending Cleveland Center
09:10AM 41.6739 -82.6819 305° West 390 449 12,200 -1,320 Descending Cleveland Center
09:11AM 41.7406 -82.7983 308° West 390 449 12,000 -120 Descending Cleveland Center
09:12AM 41.8219 -82.8958 318° Northwest 385 443 12,000  Level Cleveland Center
09:13AM 41.9053 -82.9964 318° Northwest 395 455 12,000  Level Cleveland Center
09:15AM 42.0111 -83.1236 318° Northwest 393 452 12,000  Level Cleveland Center
09:15AM 42.0578 -83.1814 317° Northwest 381 438 12,000  Level Cleveland Center
09:16AM 42.1256 -83.2261 334° Northwest 292 336 12,000 -2,520 Level Cleveland Center
09:17AM 42.1942 -83.2317 357° North 244 281 7,000 -4,140 Descending Cleveland Center
09:18AM 42.2153 -83.2242 15° North 228 262 6,800 -1,740 Descending Cleveland Center
09:18AM 42.2511 -83.2061 20° North 232 267 5,300 -1,980 Descending Cleveland Center
09:20AM 42.3192 -83.2314 345° North 205 236 3,000 -1,260 Descending Cleveland Center
09:21AM 42.2972 -83.2836 240° Southwest 179 206 2,600 -780 Descending Cleveland Center
09:22AM 42.2653 -83.3133 215° Southwest 126 145 1,500 -900 Descending Cleveland Center
09:23AM 42.2314 -83.3342 204° Southwest 132 152 800 -720 Descending Cleveland Center
09:25AM 42.2124 -83.3534 220° Southwest  Level Estimated